createdAt,value
2018-03-04T00:00:37.034Z,0.60
2018-03-04T00:01:37.042Z,0.60
2018-03-04T00:02:37.049Z,0.70
2018-03-04T00:03:37.049Z,0.60
2018-03-04T00:04:37.055Z,0.60
2018-03-04T00:05:37.063Z,0.60
2018-03-04T00:06:37.061Z,0.60
2018-03-04T00:07:37.073Z,0.60
2018-03-04T00:08:37.071Z,0.70
2018-03-04T00:09:37.081Z,0.60
2018-03-04T00:10:37.082Z,0.60
2018-03-04T00:11:37.086Z,0.60
2018-03-04T00:12:37.093Z,0.60
2018-03-04T00:13:37.099Z,0.60
2018-03-04T00:14:37.103Z,0.60
2018-03-04T00:15:37.109Z,0.60
2018-03-04T00:16:37.112Z,0.60
2018-03-04T00:17:37.111Z,0.70
2018-03-04T00:18:37.119Z,0.60
2018-03-04T00:19:37.126Z,0.60
2018-03-04T00:20:37.125Z,0.70
2018-03-04T00:21:37.129Z,0.60
2018-03-04T00:22:37.132Z,0.70
2018-03-04T00:23:37.145Z,0.50
2018-03-04T00:24:37.142Z,0.60
2018-03-04T00:25:37.147Z,0.60
2018-03-04T00:26:37.157Z,0.60
2018-03-04T00:27:37.163Z,0.70
2018-03-04T00:28:37.159Z,0.60
2018-03-04T00:29:37.170Z,0.60
2018-03-04T00:30:37.175Z,0.70
2018-03-04T00:31:37.173Z,0.70
2018-03-04T00:32:37.179Z,0.60
2018-03-04T00:33:37.187Z,0.70
2018-03-04T00:34:37.190Z,0.60
2018-03-04T00:35:37.190Z,0.60
2018-03-04T00:36:37.200Z,0.60
2018-03-04T00:37:37.198Z,0.60
2018-03-04T00:38:37.208Z,0.70
2018-03-04T00:39:37.213Z,0.60
2018-03-04T00:40:37.216Z,0.60
2018-03-04T00:41:37.222Z,0.60
2018-03-04T00:42:37.228Z,0.60
2018-03-04T00:43:37.230Z,0.80
2018-03-04T00:44:37.237Z,0.60
2018-03-04T00:45:37.238Z,0.80
2018-03-04T00:46:37.242Z,0.60
2018-03-04T00:47:37.248Z,0.70
2018-03-04T00:48:37.245Z,0.70
2018-03-04T00:49:37.249Z,0.60
2018-03-04T00:50:37.258Z,0.60
2018-03-04T00:51:37.265Z,0.60
2018-03-04T00:52:37.261Z,0.60
2018-03-04T00:53:37.266Z,0.50
2018-03-04T00:54:37.274Z,0.60
2018-03-04T00:55:37.276Z,0.60
2018-03-04T00:56:37.285Z,0.60
2018-03-04T00:57:37.287Z,0.60
2018-03-04T00:58:37.293Z,1.00
2018-03-04T00:59:37.296Z,0.60
2018-03-04T01:00:37.295Z,0.70
2018-03-04T01:01:37.298Z,0.60
2018-03-04T01:02:37.304Z,0.70
2018-03-04T01:03:37.312Z,0.60
2018-03-04T01:04:37.317Z,0.60
2018-03-04T01:05:37.316Z,0.80
2018-03-04T01:06:37.318Z,0.70
2018-03-04T01:07:37.329Z,0.60
2018-03-04T01:08:37.332Z,0.60
2018-03-04T01:09:37.338Z,0.70
2018-03-04T01:10:37.334Z,0.70
2018-03-04T01:11:37.342Z,0.60
2018-03-04T01:12:37.344Z,0.70
2018-03-04T01:13:37.352Z,0.60
2018-03-04T01:14:37.354Z,0.60
2018-03-04T01:15:37.363Z,0.60
2018-03-04T01:16:37.360Z,0.60
2018-03-04T01:17:37.365Z,0.70
2018-03-04T01:18:37.373Z,0.60
2018-03-04T01:19:37.378Z,0.70
2018-03-04T01:20:37.378Z,0.60
2018-03-04T01:21:37.382Z,0.80
2018-03-04T01:22:37.390Z,0.60
2018-03-04T01:23:37.400Z,0.70
2018-03-04T01:24:37.400Z,0.60
2018-03-04T01:25:37.398Z,0.60
2018-03-04T01:26:37.407Z,0.60
2018-03-04T01:27:37.410Z,0.60
2018-03-04T01:28:37.416Z,0.60
2018-03-04T01:29:37.418Z,0.60
2018-03-04T01:30:37.423Z,0.60
2018-03-04T01:31:37.428Z,0.70
2018-03-04T01:32:37.426Z,0.60
2018-03-04T01:33:37.436Z,0.80
2018-03-04T01:34:37.433Z,0.70
2018-03-04T01:35:37.439Z,0.90
2018-03-04T01:36:37.448Z,0.60
2018-03-04T01:37:37.447Z,0.60
2018-03-04T01:38:37.450Z,0.70
2018-03-04T01:39:37.455Z,0.70
2018-03-04T01:40:37.457Z,0.60
2018-03-04T01:41:37.465Z,0.80
2018-03-04T01:42:37.471Z,0.70
2018-03-04T01:43:37.476Z,0.60
2018-03-04T01:44:37.511Z,0.60
2018-03-04T01:45:37.484Z,0.60
2018-03-04T01:46:37.483Z,0.70
2018-03-04T01:47:37.493Z,0.60
2018-03-04T01:48:37.495Z,0.70
2018-03-04T01:49:37.500Z,0.60
2018-03-04T01:50:37.505Z,0.60
2018-03-04T01:51:37.504Z,0.60
2018-03-04T01:52:37.508Z,0.60
2018-03-04T01:53:37.510Z,0.60
2018-03-04T01:54:37.516Z,0.60
2018-03-04T01:55:37.532Z,0.60
2018-03-04T01:56:37.530Z,0.60
2018-03-04T01:57:37.534Z,0.60
2018-03-04T01:58:37.532Z,0.70
2018-03-04T01:59:37.537Z,0.60
2018-03-04T02:00:37.544Z,0.60
2018-03-04T02:01:37.544Z,0.60
2018-03-04T02:02:37.557Z,0.60
2018-03-04T02:03:37.553Z,0.60
2018-03-04T02:04:37.562Z,0.60
2018-03-04T02:05:37.567Z,0.60
2018-03-04T02:06:37.564Z,0.60
2018-03-04T02:07:37.569Z,0.70
2018-03-04T02:08:37.572Z,0.70
2018-03-04T02:09:37.578Z,0.60
2018-03-04T02:10:37.587Z,0.60
2018-03-04T02:11:37.592Z,0.60
2018-03-04T02:12:37.594Z,0.70
2018-03-04T02:13:37.593Z,0.70
2018-03-04T02:14:37.599Z,0.60
2018-03-04T02:15:37.601Z,0.70
2018-03-04T02:16:37.605Z,0.60
2018-03-04T02:17:37.613Z,0.60
2018-03-04T02:18:37.623Z,0.60
2018-03-04T02:19:37.617Z,0.70
2018-03-04T02:20:37.620Z,0.70
2018-03-04T02:21:37.629Z,0.70
2018-03-04T02:22:37.628Z,0.70
2018-03-04T02:23:37.636Z,0.60
2018-03-04T02:24:37.635Z,0.60
2018-03-04T02:25:37.641Z,0.70
2018-03-04T02:26:37.644Z,0.70
2018-03-04T02:27:37.649Z,0.60
2018-03-04T02:28:37.649Z,0.60
2018-03-04T02:29:37.659Z,0.70
2018-03-04T02:30:37.665Z,0.60
2018-03-04T02:31:37.669Z,0.90
2018-03-04T02:32:37.666Z,0.90
2018-03-04T02:33:37.669Z,0.60
2018-03-04T02:34:37.674Z,0.60
2018-03-04T02:35:37.683Z,0.60
2018-03-04T02:36:37.685Z,0.60
2018-03-04T02:37:37.691Z,0.60
2018-03-04T02:38:37.687Z,0.70
2018-03-04T02:39:37.691Z,0.60
2018-03-04T02:40:37.697Z,0.70
2018-03-04T02:41:37.699Z,0.60
2018-03-04T02:42:37.707Z,0.70
2018-03-04T02:43:37.712Z,0.60
2018-03-04T02:44:37.710Z,0.80
2018-03-04T02:45:37.713Z,0.60
2018-03-04T02:46:37.717Z,0.70
2018-03-04T02:47:37.728Z,0.70
2018-03-04T02:48:37.728Z,0.60
2018-03-04T02:49:37.734Z,0.70
2018-03-04T02:50:37.733Z,0.60
2018-03-04T02:51:37.736Z,0.80
2018-03-04T02:52:37.743Z,0.60
2018-03-04T02:53:37.747Z,0.70
2018-03-04T02:54:37.753Z,0.60
2018-03-04T02:55:37.752Z,0.60
2018-03-04T02:56:37.754Z,0.70
2018-03-04T02:57:37.760Z,0.70
2018-03-04T02:58:37.773Z,0.70
2018-03-04T02:59:37.774Z,0.70
2018-03-04T03:00:37.771Z,0.60
2018-03-04T03:01:37.779Z,0.70
2018-03-04T03:02:37.786Z,0.70
2018-03-04T03:03:37.788Z,0.70
2018-03-04T03:04:37.786Z,1.00
2018-03-04T03:05:37.789Z,0.70
2018-03-04T03:06:37.795Z,0.60
2018-03-04T03:07:37.806Z,0.70
2018-03-04T03:08:37.808Z,0.60
2018-03-04T03:09:37.812Z,0.70
2018-03-04T03:10:37.811Z,0.70
2018-03-04T03:11:37.815Z,0.70
2018-03-04T03:12:37.819Z,0.60
2018-03-04T03:13:37.823Z,0.70
2018-03-04T03:14:37.825Z,0.60
2018-03-04T03:15:37.836Z,0.60
2018-03-04T03:16:37.841Z,0.70
2018-03-04T03:17:37.845Z,0.70
2018-03-04T03:18:37.851Z,0.70
2018-03-04T03:19:37.854Z,0.70
2018-03-04T03:20:37.851Z,0.60
2018-03-04T03:21:37.859Z,0.70
2018-03-04T03:22:37.861Z,0.60
2018-03-04T03:23:37.871Z,0.70
2018-03-04T03:24:37.868Z,0.60
2018-03-04T03:25:37.873Z,0.60
2018-03-04T03:26:37.882Z,0.70
2018-03-04T03:27:37.883Z,0.60
2018-03-04T03:28:37.892Z,0.70
2018-03-04T03:29:37.895Z,0.60
2018-03-04T03:30:37.899Z,0.70
2018-03-04T03:31:37.904Z,0.60
2018-03-04T03:32:37.907Z,0.70
2018-03-04T03:33:37.905Z,0.60
2018-03-04T03:34:37.912Z,0.70
2018-03-04T03:35:37.913Z,0.60
2018-03-04T03:36:37.921Z,0.60
2018-03-04T03:37:37.926Z,0.60
2018-03-04T03:38:37.925Z,0.70
2018-03-04T03:39:37.930Z,0.70
2018-03-04T03:40:37.934Z,0.70
2018-03-04T03:41:37.936Z,0.70
2018-03-04T03:42:37.942Z,0.60
2018-03-04T03:43:37.950Z,0.60
2018-03-04T03:44:37.953Z,0.70
2018-03-04T03:45:37.954Z,0.70
2018-03-04T03:46:37.962Z,0.60
2018-03-04T03:47:37.966Z,0.60
2018-03-04T03:48:37.965Z,0.60
2018-03-04T03:49:37.973Z,0.70
2018-03-04T03:50:37.971Z,0.70
2018-03-04T03:51:37.977Z,0.60
2018-03-04T03:52:37.980Z,0.60
2018-03-04T03:53:37.984Z,0.60
2018-03-04T03:54:37.988Z,0.70
2018-03-04T03:55:37.993Z,0.60
2018-03-04T03:56:38.001Z,0.60
2018-03-04T03:57:38.005Z,0.70
2018-03-04T03:58:38.009Z,0.60
2018-03-04T03:59:38.007Z,0.60
2018-03-04T04:00:38.010Z,0.60
2018-03-04T04:01:38.022Z,0.60
2018-03-04T04:02:38.023Z,0.60
2018-03-04T04:03:38.023Z,0.60
2018-03-04T04:04:38.031Z,0.60
2018-03-04T04:05:38.036Z,0.60
2018-03-04T04:06:38.033Z,0.60
2018-03-04T04:07:38.038Z,0.70
2018-03-04T04:08:38.047Z,0.70
2018-03-04T04:09:38.048Z,0.70
2018-03-04T04:10:38.050Z,0.70
2018-03-04T04:11:38.060Z,0.70
2018-03-04T04:12:38.061Z,0.60
2018-03-04T04:13:38.061Z,0.60
2018-03-04T04:14:38.065Z,0.80
2018-03-04T04:15:38.079Z,0.70
2018-03-04T04:16:38.071Z,0.70
2018-03-04T04:17:38.076Z,0.60
2018-03-04T04:18:38.080Z,0.60
2018-03-04T04:19:38.091Z,0.60
2018-03-04T04:20:38.087Z,0.60
2018-03-04T04:21:38.091Z,0.60
2018-03-04T04:22:38.101Z,0.70
2018-03-04T04:23:38.105Z,0.60
2018-03-04T04:24:38.110Z,0.70
2018-03-04T04:25:38.107Z,0.60
2018-03-04T04:26:38.113Z,0.70
2018-03-04T04:27:38.122Z,0.60
2018-03-04T04:28:38.127Z,0.60
2018-03-04T04:29:38.122Z,0.60
2018-03-04T04:30:38.128Z,0.80
2018-03-04T04:31:38.130Z,0.60
2018-03-04T04:32:38.132Z,0.70
2018-03-04T04:33:38.136Z,0.70
2018-03-04T04:34:38.146Z,0.70
2018-03-04T04:35:38.149Z,0.70
2018-03-04T04:36:38.155Z,0.70
2018-03-04T04:37:38.156Z,0.70
2018-03-04T04:38:38.160Z,0.60
2018-03-04T04:39:38.157Z,0.60
2018-03-04T04:40:38.168Z,0.70
2018-03-04T04:41:38.164Z,0.60
2018-03-04T04:42:38.170Z,0.70
2018-03-04T04:43:38.173Z,0.70
2018-03-04T04:44:38.180Z,0.70
2018-03-04T04:45:38.185Z,0.60
2018-03-04T04:46:38.183Z,0.60
2018-03-04T04:47:38.192Z,0.80
2018-03-04T04:48:38.189Z,0.70
2018-03-04T04:49:38.194Z,0.70
2018-03-04T04:50:38.197Z,0.60
2018-03-04T04:51:38.200Z,0.60
2018-03-04T04:52:38.212Z,0.70
2018-03-04T04:53:38.214Z,0.70
2018-03-04T04:54:38.211Z,0.70
2018-03-04T04:55:38.215Z,0.70
2018-03-04T04:56:38.226Z,0.60
2018-03-04T04:57:38.221Z,0.60
2018-03-04T04:58:38.230Z,0.70
2018-03-04T04:59:38.230Z,0.60
2018-03-04T05:00:38.233Z,0.70
2018-03-04T05:01:38.236Z,0.80
2018-03-04T05:02:38.244Z,0.60
2018-03-04T05:03:38.246Z,0.60
2018-03-04T05:04:38.252Z,0.70
2018-03-04T05:05:38.260Z,0.80
2018-03-04T05:06:38.254Z,0.60
2018-03-04T05:07:38.269Z,0.80
2018-03-04T05:08:38.266Z,0.70
2018-03-04T05:09:38.271Z,0.60
2018-03-04T05:10:38.274Z,0.70
2018-03-04T05:11:38.278Z,0.60
2018-03-04T05:12:38.275Z,0.60
2018-03-04T05:13:38.286Z,0.60
2018-03-04T05:14:38.289Z,0.70
2018-03-04T05:15:38.291Z,0.70
2018-03-04T05:16:38.292Z,0.60
2018-03-04T05:17:38.295Z,0.70
2018-03-04T05:18:38.300Z,0.80
2018-03-04T05:19:38.303Z,0.70
2018-03-04T05:20:38.305Z,0.60
2018-03-04T05:21:38.317Z,0.90
2018-03-04T05:22:38.314Z,0.70
2018-03-04T05:23:38.324Z,0.70
2018-03-04T05:24:38.321Z,0.70
2018-03-04T05:25:38.326Z,0.60
2018-03-04T05:26:38.335Z,0.60
2018-03-04T05:27:38.340Z,0.70
2018-03-04T05:28:38.336Z,0.60
2018-03-04T05:29:38.341Z,0.60
2018-03-04T05:30:39.345Z,0.70
2018-03-04T05:31:38.353Z,0.60
2018-03-04T05:32:38.355Z,0.60
2018-03-04T05:33:38.364Z,0.60
2018-03-04T05:34:38.363Z,0.70
2018-03-04T05:35:38.368Z,0.90
2018-03-04T05:36:38.371Z,0.70
2018-03-04T05:37:38.380Z,0.70
2018-03-04T05:38:38.376Z,0.70
2018-03-04T05:39:38.384Z,0.70
2018-03-04T05:40:38.386Z,0.70
2018-03-04T05:41:38.391Z,0.70
2018-03-04T05:42:38.395Z,0.70
2018-03-04T05:43:38.399Z,0.70
2018-03-04T05:44:38.401Z,0.70
2018-03-04T05:45:38.406Z,0.70
2018-03-04T05:46:38.411Z,0.70
2018-03-04T05:47:38.415Z,0.60
2018-03-04T05:48:38.417Z,0.70
2018-03-04T05:49:38.417Z,0.60
2018-03-04T05:50:38.425Z,0.60
2018-03-04T05:51:38.425Z,0.70
2018-03-04T05:52:38.433Z,0.60
2018-03-04T05:53:38.436Z,0.70
2018-03-04T05:54:38.434Z,0.70
2018-03-04T05:55:38.450Z,0.60
2018-03-04T05:56:38.446Z,0.60
2018-03-04T05:57:38.452Z,0.60
2018-03-04T05:58:38.455Z,0.60
2018-03-04T05:59:38.461Z,0.80
2018-03-04T06:00:38.463Z,0.60
2018-03-04T06:01:38.461Z,0.60
2018-03-04T06:02:38.471Z,0.70
2018-03-04T06:03:38.470Z,0.60
2018-03-04T06:04:38.473Z,0.70
2018-03-04T06:05:38.477Z,0.60
2018-03-04T06:06:38.486Z,0.70
2018-03-04T06:07:38.491Z,0.60
2018-03-04T06:08:38.488Z,0.60
2018-03-04T06:09:38.498Z,0.60
2018-03-04T06:10:38.503Z,0.60
2018-03-04T06:11:38.501Z,0.60
2018-03-04T06:12:38.546Z,0.60
2018-03-04T06:13:38.508Z,0.70
2018-03-04T06:14:38.512Z,0.70
2018-03-04T06:15:38.523Z,0.60
2018-03-04T06:16:38.526Z,0.60
2018-03-04T06:17:38.529Z,0.60
2018-03-04T06:18:38.533Z,0.60
2018-03-04T06:19:38.538Z,0.70
2018-03-04T06:20:38.540Z,0.70
2018-03-04T06:21:38.539Z,0.60
2018-03-04T06:22:38.546Z,0.70
2018-03-04T06:23:38.551Z,0.60
2018-03-04T06:24:38.556Z,0.60
2018-03-04T06:25:38.554Z,0.60
2018-03-04T06:26:38.559Z,0.70
2018-03-04T06:27:38.560Z,0.60
2018-03-04T06:28:38.569Z,0.60
2018-03-04T06:29:38.573Z,0.70
2018-03-04T06:30:38.573Z,0.60
2018-03-04T06:31:38.575Z,0.60
2018-03-04T06:32:38.588Z,0.60
2018-03-04T06:33:38.597Z,0.70
2018-03-04T06:34:38.591Z,0.60
2018-03-04T06:35:38.597Z,0.70
2018-03-04T06:36:38.594Z,0.50
2018-03-04T06:37:38.596Z,0.70
2018-03-04T06:38:38.600Z,0.60
2018-03-04T06:39:38.610Z,0.60
2018-03-04T06:40:38.608Z,0.60
2018-03-04T06:41:38.610Z,0.70
2018-03-04T06:42:38.621Z,0.60
2018-03-04T06:43:38.624Z,0.60
2018-03-04T06:44:38.626Z,0.60
2018-03-04T06:45:38.629Z,0.60
2018-03-04T06:46:38.629Z,0.70
2018-03-04T06:47:38.633Z,0.70
2018-03-04T06:48:38.692Z,0.60
2018-03-04T06:49:38.644Z,0.70
2018-03-04T06:50:38.645Z,0.60
2018-03-04T06:51:38.647Z,0.60
2018-03-04T06:52:38.652Z,0.70
2018-03-04T06:53:38.653Z,0.70
2018-03-04T06:54:38.662Z,0.80
2018-03-04T06:55:38.666Z,0.70
2018-03-04T06:56:38.664Z,0.60
2018-03-04T06:57:38.675Z,0.80
2018-03-04T06:58:38.683Z,0.60
2018-03-04T06:59:38.682Z,0.70
2018-03-04T07:00:38.683Z,0.70
2018-03-04T07:01:38.690Z,0.70
2018-03-04T07:02:38.686Z,0.70
2018-03-04T07:03:38.696Z,0.70
2018-03-04T07:04:38.692Z,0.70
2018-03-04T07:05:38.697Z,0.70
2018-03-04T07:06:38.700Z,0.70
2018-03-04T07:07:38.713Z,0.60
2018-03-04T07:08:38.712Z,0.70
2018-03-04T07:09:38.713Z,0.80
2018-03-04T07:10:38.721Z,0.60
2018-03-04T07:11:38.729Z,0.60
2018-03-04T07:12:38.728Z,0.60
2018-03-04T07:13:38.733Z,0.70
2018-03-04T07:14:38.735Z,0.60
2018-03-04T07:15:38.734Z,0.70
2018-03-04T07:16:38.737Z,0.70
2018-03-04T07:17:38.747Z,0.60
2018-03-04T07:18:38.754Z,0.70
2018-03-04T07:19:38.756Z,0.70
2018-03-04T07:20:38.753Z,0.80
2018-03-04T07:21:38.764Z,1.20
2018-03-04T07:22:38.768Z,2.30
2018-03-04T07:23:38.773Z,2.10
2018-03-04T07:24:38.771Z,2.00
2018-03-04T07:25:38.777Z,1.30
2018-03-04T07:26:38.781Z,1.30
2018-03-04T07:27:38.789Z,1.10
2018-03-04T07:28:38.793Z,1.20
2018-03-04T07:29:38.842Z,1.00
2018-03-04T07:30:38.804Z,0.90
2018-03-04T07:31:38.802Z,0.80
2018-03-04T07:32:38.811Z,0.70
2018-03-04T07:33:38.815Z,0.90
2018-03-04T07:34:38.821Z,0.80
2018-03-04T07:35:38.820Z,1.10
2018-03-04T07:36:38.823Z,0.60
2018-03-04T07:37:38.827Z,0.60
2018-03-04T07:38:38.831Z,0.60
2018-03-04T07:39:38.841Z,0.70
2018-03-04T07:40:38.855Z,0.80
2018-03-04T07:41:38.848Z,0.60
2018-03-04T07:42:38.860Z,0.60
2018-03-04T07:43:38.852Z,0.60
2018-03-04T07:44:38.865Z,0.70
2018-03-04T07:45:38.861Z,1.60
2018-03-04T07:46:38.865Z,1.30
2018-03-04T07:47:38.869Z,0.90
2018-03-04T07:48:38.875Z,1.10
2018-03-04T07:49:38.882Z,0.90
2018-03-04T07:50:38.888Z,1.20
2018-03-04T07:51:38.893Z,0.80
2018-03-04T07:52:38.890Z,0.80
2018-03-04T07:53:38.901Z,0.70
2018-03-04T07:54:38.898Z,1.00
2018-03-04T07:55:38.910Z,0.80
2018-03-04T07:56:38.919Z,0.90
2018-03-04T07:57:38.913Z,1.50
2018-03-04T07:58:38.925Z,1.90
2018-03-04T07:59:38.922Z,1.90
2018-03-04T08:00:38.924Z,2.00
2018-03-04T08:01:38.937Z,1.40
2018-03-04T08:02:38.934Z,1.80
2018-03-04T08:03:38.939Z,1.70
2018-03-04T08:04:38.950Z,2.10
2018-03-04T08:05:38.948Z,2.20
2018-03-04T08:06:38.955Z,2.40
2018-03-04T08:07:38.963Z,2.20
2018-03-04T08:08:38.962Z,1.50
2018-03-04T08:09:38.967Z,1.30
2018-03-04T08:10:38.983Z,1.40
2018-03-04T08:11:38.982Z,1.60
2018-03-04T08:12:38.988Z,1.50
2018-03-04T08:13:38.993Z,1.20
2018-03-04T08:14:38.992Z,0.70
2018-03-04T08:15:38.999Z,0.80
2018-03-04T08:16:39.008Z,0.70
2018-03-04T08:17:39.008Z,0.80
2018-03-04T08:18:39.013Z,0.90
2018-03-04T08:19:39.027Z,0.80
2018-03-04T08:20:39.039Z,0.80
2018-03-04T08:21:39.029Z,1.00
2018-03-04T08:22:39.041Z,0.80
2018-03-04T08:23:39.048Z,0.80
2018-03-04T08:24:39.046Z,0.80
2018-03-04T08:25:39.053Z,0.80
2018-03-04T08:26:39.065Z,0.80
2018-03-04T08:27:39.063Z,0.90
2018-03-04T08:28:39.112Z,0.90
2018-03-04T08:29:39.075Z,1.00
2018-03-04T08:30:39.088Z,0.90
2018-03-04T08:31:39.093Z,0.80
2018-03-04T08:32:39.093Z,0.70
2018-03-04T08:33:39.105Z,0.80
2018-03-04T08:34:39.106Z,0.90
2018-03-04T08:35:39.112Z,0.80
2018-03-04T08:36:39.129Z,0.90
2018-03-04T08:37:39.122Z,0.80
2018-03-04T08:38:39.129Z,0.90
2018-03-04T08:39:39.141Z,0.70
2018-03-04T08:40:39.149Z,0.60
2018-03-04T08:41:39.156Z,0.70
2018-03-04T08:42:39.160Z,0.70
2018-03-04T08:43:39.160Z,0.70
2018-03-04T08:44:39.168Z,0.90
2018-03-04T08:45:39.173Z,0.80
2018-03-04T08:46:39.189Z,0.70
2018-03-04T08:47:39.192Z,0.60
2018-03-04T08:48:39.196Z,0.70
2018-03-04T08:49:39.204Z,0.80
2018-03-04T08:50:39.206Z,0.60
2018-03-04T08:51:39.212Z,0.70
2018-03-04T08:52:39.223Z,0.70
2018-03-04T08:53:39.226Z,0.70
2018-03-04T08:54:39.234Z,0.70
2018-03-04T08:55:39.240Z,0.70
2018-03-04T08:56:39.245Z,0.80
2018-03-04T08:57:39.252Z,0.60
2018-03-04T08:58:39.265Z,0.80
2018-03-04T08:59:39.271Z,0.80
2018-03-04T09:00:39.277Z,0.70
2018-03-04T09:01:39.289Z,0.70
2018-03-04T09:02:39.287Z,0.60
2018-03-04T09:03:39.298Z,0.60
2018-03-04T09:04:39.307Z,0.70
2018-03-04T09:05:39.309Z,0.70
2018-03-04T09:06:39.315Z,0.60
2018-03-04T09:07:39.327Z,0.60
2018-03-04T09:08:39.397Z,0.60
2018-03-04T09:09:39.335Z,0.80
2018-03-04T09:10:39.348Z,0.70
2018-03-04T09:11:39.352Z,0.70
2018-03-04T09:12:39.362Z,0.70
2018-03-04T09:13:39.369Z,0.70
2018-03-04T09:14:39.372Z,0.70
2018-03-04T09:15:39.379Z,0.70
2018-03-04T09:16:39.385Z,0.70
2018-03-04T09:17:39.392Z,0.70
2018-03-04T09:18:39.400Z,0.60
2018-03-04T09:19:39.461Z,0.80
2018-03-04T09:20:39.421Z,0.60
2018-03-04T09:21:39.428Z,0.80
2018-03-04T09:22:39.434Z,0.60
2018-03-04T09:23:39.441Z,0.60
2018-03-04T09:24:39.444Z,0.60
2018-03-04T09:25:39.511Z,0.80
2018-03-04T09:26:39.462Z,0.70
2018-03-04T09:27:39.472Z,0.70
2018-03-04T09:28:39.482Z,0.70
2018-03-04T09:29:39.486Z,0.60
2018-03-04T09:30:39.496Z,0.70
2018-03-04T09:31:39.497Z,0.70
2018-03-04T09:32:39.508Z,0.70
2018-03-04T09:33:39.520Z,0.60
2018-03-04T09:34:39.528Z,0.70
2018-03-04T09:35:39.532Z,0.70
2018-03-04T09:36:39.536Z,0.70
2018-03-04T09:37:39.545Z,0.70
2018-03-04T09:38:39.561Z,0.70
2018-03-04T09:39:39.565Z,0.60
2018-03-04T09:40:39.567Z,0.70
2018-03-04T09:41:39.580Z,0.60
2018-03-04T09:42:39.589Z,0.70
2018-03-04T09:43:39.597Z,0.60
2018-03-04T09:44:39.603Z,0.70
2018-03-04T09:45:39.609Z,0.70
2018-03-04T09:46:39.624Z,0.70
2018-03-04T09:47:39.634Z,0.70
2018-03-04T09:48:39.638Z,0.70
2018-03-04T09:49:39.649Z,0.60
2018-03-04T09:50:39.660Z,0.70
2018-03-04T09:51:39.668Z,0.70
2018-03-04T09:52:39.670Z,0.70
2018-03-04T09:53:39.681Z,0.70
2018-03-04T09:54:39.688Z,0.60
2018-03-04T09:55:39.700Z,0.70
2018-03-04T09:56:39.710Z,0.70
2018-03-04T09:57:39.714Z,0.70
2018-03-04T09:58:39.727Z,0.70
2018-03-04T09:59:39.733Z,0.70
2018-03-04T10:00:39.740Z,0.60
2018-03-04T10:01:39.752Z,0.70
2018-03-04T10:02:39.758Z,0.60
2018-03-04T10:03:39.767Z,0.70
2018-03-04T10:04:39.781Z,0.70
2018-03-04T10:05:39.791Z,0.60
2018-03-04T10:06:39.800Z,0.60
2018-03-04T10:07:39.808Z,0.70
2018-03-04T10:08:39.813Z,0.60
2018-03-04T10:09:39.828Z,0.60
2018-03-04T10:10:39.838Z,0.90
2018-03-04T10:11:39.844Z,0.60
2018-03-04T10:12:39.861Z,0.60
2018-03-04T10:13:39.865Z,0.60
2018-03-04T10:14:39.877Z,0.60
2018-03-04T10:15:39.888Z,0.60
2018-03-04T10:16:39.891Z,0.60
2018-03-04T10:17:39.918Z,0.60
2018-03-04T10:18:39.911Z,0.60
2018-03-04T10:19:39.921Z,0.60
2018-03-04T10:20:39.933Z,0.60
2018-03-04T10:21:39.945Z,0.60
2018-03-04T10:22:39.951Z,0.80
2018-03-04T10:23:39.963Z,0.60
2018-03-04T10:24:39.971Z,0.60
2018-03-04T10:25:39.988Z,0.60
2018-03-04T10:26:39.991Z,0.70
2018-03-04T10:27:40.002Z,0.60
2018-03-04T10:28:40.018Z,0.60
2018-03-04T10:29:40.023Z,0.60
2018-03-04T10:30:40.033Z,0.60
2018-03-04T10:31:40.051Z,0.60
2018-03-04T10:32:40.061Z,0.60
2018-03-04T10:33:40.069Z,0.60
2018-03-04T10:34:40.083Z,0.70
2018-03-04T10:35:40.087Z,0.70
2018-03-04T10:36:40.104Z,0.60
2018-03-04T10:37:40.116Z,0.90
2018-03-04T10:38:40.121Z,0.70
2018-03-04T10:39:40.155Z,0.70
2018-03-04T10:40:40.148Z,0.60
2018-03-04T10:41:40.161Z,0.60
2018-03-04T10:42:40.166Z,0.60
2018-03-04T10:43:40.180Z,0.80
2018-03-04T10:44:40.196Z,0.70
2018-03-04T10:45:40.209Z,0.70
2018-03-04T10:46:40.219Z,0.60
2018-03-04T10:47:40.234Z,0.60
2018-03-04T10:48:40.236Z,0.90
2018-03-04T10:49:40.260Z,0.70
2018-03-04T10:50:40.263Z,0.60
2018-03-04T10:51:41.272Z,0.70
2018-03-04T10:52:40.290Z,0.60
2018-03-04T10:53:40.302Z,0.60
2018-03-04T10:54:40.311Z,0.60
2018-03-04T10:55:40.326Z,0.60
2018-03-04T10:56:40.333Z,0.60
2018-03-04T10:57:40.346Z,0.60
2018-03-04T10:58:40.405Z,0.60
2018-03-04T10:59:40.374Z,0.60
2018-03-04T11:00:40.393Z,0.80
2018-03-04T11:01:40.398Z,0.70
2018-03-04T11:02:40.415Z,0.60
2018-03-04T11:03:40.427Z,0.60
2018-03-04T11:04:40.441Z,0.90
2018-03-04T11:05:40.446Z,0.60
2018-03-04T11:06:40.459Z,0.60
2018-03-04T11:07:40.483Z,0.70
2018-03-04T11:08:40.486Z,0.60
2018-03-04T11:09:40.507Z,0.60
2018-03-04T11:10:40.518Z,0.80
2018-03-04T11:11:40.529Z,0.70
2018-03-04T11:12:40.539Z,0.60
2018-03-04T11:13:40.560Z,0.80
2018-03-04T11:14:40.572Z,0.70
2018-03-04T11:15:40.587Z,0.70
2018-03-04T11:16:40.593Z,0.60
2018-03-04T11:17:40.607Z,0.60
2018-03-04T11:18:40.621Z,0.60
2018-03-04T11:19:40.633Z,0.50
2018-03-04T11:20:40.649Z,0.70
2018-03-04T11:21:40.666Z,0.80
2018-03-04T11:22:40.678Z,0.60
2018-03-04T11:23:40.694Z,0.70
2018-03-04T11:24:40.702Z,0.80
2018-03-04T11:25:40.725Z,0.60
2018-03-04T11:26:40.731Z,0.70
2018-03-04T11:27:40.798Z,0.60
2018-03-04T11:28:40.770Z,0.60
2018-03-04T11:29:40.773Z,0.60
2018-03-04T11:30:40.792Z,0.70
2018-03-04T11:31:40.806Z,0.60
2018-03-04T11:32:40.824Z,0.60
2018-03-04T11:33:40.835Z,0.60
2018-03-04T11:34:40.852Z,0.70
2018-03-04T11:35:40.864Z,0.60
2018-03-04T11:36:40.874Z,0.60
2018-03-04T11:37:40.893Z,0.60
2018-03-04T11:38:40.900Z,0.60
2018-03-04T11:39:40.920Z,0.60
2018-03-04T11:40:40.935Z,0.60
2018-03-04T11:41:40.943Z,0.60
2018-03-04T11:42:40.958Z,0.60
2018-03-04T11:43:40.976Z,0.60
2018-03-04T11:44:40.988Z,0.60
2018-03-04T11:45:40.998Z,0.60
2018-03-04T11:46:41.012Z,0.60
2018-03-04T11:47:41.027Z,0.70
2018-03-04T11:48:41.044Z,0.60
2018-03-04T11:49:41.092Z,0.60
2018-03-04T11:50:41.067Z,0.70
2018-03-04T11:51:41.081Z,0.60
2018-03-04T11:52:41.093Z,0.60
2018-03-04T11:53:41.113Z,0.70
2018-03-04T11:54:41.127Z,0.70
2018-03-04T11:55:41.141Z,0.60
2018-03-04T11:56:41.148Z,0.70
2018-03-04T11:57:41.168Z,0.60
2018-03-04T11:58:41.180Z,0.70
2018-03-04T11:59:41.192Z,0.70
2018-03-04T12:00:41.205Z,0.50
2018-03-04T12:01:41.220Z,0.60
2018-03-04T12:02:41.233Z,0.70
2018-03-04T12:03:41.253Z,0.60
2018-03-04T12:04:41.260Z,0.60
2018-03-04T12:05:41.275Z,0.60
2018-03-04T12:06:41.292Z,0.70
2018-03-04T12:07:41.360Z,0.70
2018-03-04T12:08:41.324Z,0.60
2018-03-04T12:09:41.412Z,0.70
2018-03-04T12:10:41.352Z,0.60
2018-03-04T12:11:41.367Z,0.60
2018-03-04T12:12:41.378Z,0.70
2018-03-04T12:13:41.397Z,0.70
2018-03-04T12:14:41.412Z,0.70
2018-03-04T12:15:41.428Z,0.70
2018-03-04T12:16:41.441Z,0.70
2018-03-04T12:17:41.450Z,0.60
2018-03-04T12:18:41.467Z,0.60
2018-03-04T12:19:41.482Z,0.60
2018-03-04T12:20:41.497Z,0.60
2018-03-04T12:21:41.517Z,0.70
2018-03-04T12:22:41.526Z,0.60
2018-03-04T12:23:41.545Z,0.70
2018-03-04T12:24:41.552Z,0.60
2018-03-04T12:25:41.573Z,0.60
2018-03-04T12:26:41.587Z,0.60
2018-03-04T12:27:41.601Z,0.60
2018-03-04T12:28:41.609Z,0.60
2018-03-04T12:29:41.625Z,0.70
2018-03-04T12:30:41.645Z,0.70
2018-03-04T12:31:41.656Z,0.60
2018-03-04T12:32:41.676Z,0.60
2018-03-04T12:33:41.690Z,0.60
2018-03-04T12:34:41.758Z,0.70
2018-03-04T12:35:41.741Z,0.80
2018-03-04T12:36:41.750Z,0.70
2018-03-04T12:37:41.741Z,0.60
2018-03-04T12:38:41.757Z,0.80
2018-03-04T12:39:41.771Z,0.60
2018-03-04T12:40:41.793Z,0.60
2018-03-04T12:41:41.802Z,0.70
2018-03-04T12:42:41.821Z,0.60
2018-03-04T12:43:41.837Z,0.70
2018-03-04T12:44:41.855Z,0.60
2018-03-04T12:45:41.866Z,0.60
2018-03-04T12:46:41.875Z,0.60
2018-03-04T12:47:41.895Z,0.70
2018-03-04T12:48:41.912Z,0.70
2018-03-04T12:49:41.926Z,0.60
2018-03-04T12:50:41.934Z,0.60
2018-03-04T12:51:41.954Z,0.60
2018-03-04T12:52:41.963Z,0.70
2018-03-04T12:53:41.984Z,0.70
2018-03-04T12:54:41.994Z,0.70
2018-03-04T12:55:42.048Z,0.60
2018-03-04T12:56:42.024Z,0.60
2018-03-04T12:57:42.055Z,0.60
2018-03-04T12:58:42.061Z,0.70
2018-03-04T12:59:42.076Z,0.60
2018-03-04T13:00:42.092Z,0.60
2018-03-04T13:01:42.101Z,0.70
2018-03-04T13:02:42.155Z,0.80
2018-03-04T13:03:42.132Z,0.60
2018-03-04T13:04:43.154Z,0.70
2018-03-04T13:05:42.166Z,0.70
2018-03-04T13:06:42.178Z,0.60
2018-03-04T13:07:42.194Z,0.60
2018-03-04T13:08:42.212Z,0.70
2018-03-04T13:09:42.224Z,0.70
2018-03-04T13:10:42.243Z,0.60
2018-03-04T13:11:42.262Z,0.70
2018-03-04T13:12:42.277Z,0.60
2018-03-04T13:13:42.288Z,0.60
2018-03-04T13:14:42.310Z,0.70
2018-03-04T13:15:42.319Z,0.60
2018-03-04T13:16:42.342Z,0.70
2018-03-04T13:17:42.359Z,0.70
2018-03-04T13:18:42.368Z,0.60